createdAt,value
2023-04-28T00:00:36.478Z,9.45
2023-04-28T00:03:03.683Z,9.44
2023-04-28T00:05:30.778Z,9.42
2023-04-28T00:07:57.773Z,9.43
2023-04-28T00:10:24.717Z,9.42
2023-04-28T00:12:51.627Z,9.43
2023-04-28T00:15:18.520Z,9.42
2023-04-28T00:17:45.360Z,9.42
2023-04-28T00:20:12.542Z,9.42
2023-04-28T00:22:39.426Z,9.42
2023-04-28T00:25:06.957Z,9.41
2023-04-28T00:27:34.510Z,9.39
2023-04-28T00:30:01.622Z,9.38
2023-04-28T00:32:28.699Z,9.37
2023-04-28T00:34:57.372Z,9.37
2023-04-28T00:37:24.281Z,9.36
2023-04-28T00:39:57.647Z,9.34
2023-04-28T00:42:24.637Z,9.32
2023-04-28T00:44:51.465Z,9.30
2023-04-28T00:47:18.722Z,9.29
2023-04-28T00:49:45.813Z,9.28
2023-04-28T00:52:12.642Z,9.28
2023-04-28T00:54:39.617Z,9.28
2023-04-28T00:57:07.094Z,9.29
2023-04-28T00:59:33.919Z,9.29
2023-04-28T01:02:01.197Z,9.28
2023-04-28T01:04:28.834Z,9.28
2023-04-28T01:06:56.299Z,9.25
2023-04-28T01:09:23.201Z,9.25
2023-04-28T01:11:50.715Z,9.25
2023-04-28T01:14:29.988Z,9.25
2023-04-28T01:16:57.055Z,9.25
2023-04-28T01:19:24.161Z,9.25
2023-04-28T01:21:51.933Z,9.23
2023-04-28T01:24:22.795Z,9.22
2023-04-28T01:26:50.095Z,9.21
2023-04-28T01:29:16.993Z,9.20
2023-04-28T01:31:43.989Z,9.20
2023-04-28T01:34:10.952Z,9.20
2023-04-28T01:36:38.025Z,9.19
2023-04-28T01:39:05.225Z,9.17
2023-04-28T01:41:35.985Z,9.16
2023-04-28T01:44:05.192Z,9.17
2023-04-28T01:46:32.125Z,9.17
2023-04-28T01:48:59.033Z,9.16
2023-04-28T01:51:27.146Z,9.15
2023-04-28T01:53:54.479Z,9.13
2023-04-28T01:56:21.411Z,9.14
2023-04-28T01:58:49.208Z,9.12
2023-04-28T02:01:16.316Z,9.12
2023-04-28T02:03:44.334Z,9.11
2023-04-28T02:06:11.512Z,9.10
2023-04-28T02:08:38.396Z,9.09
2023-04-28T02:11:05.914Z,9.08
2023-04-28T02:13:32.787Z,9.06
2023-04-28T02:16:02.769Z,9.06
2023-04-28T02:18:29.629Z,9.06
2023-04-28T02:21:11.896Z,9.05
2023-04-28T02:23:39.649Z,9.03
2023-04-28T02:26:06.655Z,9.02
2023-04-28T02:28:33.601Z,9.01
2023-04-28T02:31:07.924Z,9.00
2023-04-28T02:33:35.062Z,8.98
2023-04-28T02:36:03.166Z,8.96
2023-04-28T02:38:30.070Z,8.96
2023-04-28T02:41:01.107Z,8.94
2023-04-28T02:43:32.012Z,8.91
2023-04-28T02:45:58.938Z,8.88
2023-04-28T02:48:25.957Z,8.85
2023-04-28T02:50:53.301Z,8.83
2023-04-28T02:53:20.950Z,8.81
2023-04-28T02:55:48.189Z,8.79
2023-04-28T02:58:15.220Z,8.76
2023-04-28T03:00:42.073Z,8.73
2023-04-28T03:03:09.081Z,8.70
2023-04-28T03:05:36.159Z,8.67
2023-04-28T03:08:03.004Z,8.64
2023-04-28T03:10:29.848Z,8.62
2023-04-28T03:12:56.732Z,8.60
2023-04-28T03:15:23.660Z,8.57
2023-04-28T03:17:50.644Z,8.57
2023-04-28T03:20:18.086Z,8.55
2023-04-28T03:22:44.944Z,8.54
2023-04-28T03:25:12.444Z,8.53
2023-04-28T03:27:46.543Z,8.52
2023-04-28T03:30:14.224Z,8.52
2023-04-28T03:32:41.382Z,8.50
2023-04-28T03:35:08.848Z,8.48
2023-04-28T03:37:35.970Z,8.48
2023-04-28T03:40:03.403Z,8.46
2023-04-28T03:42:36.262Z,8.45
2023-04-28T03:45:11.358Z,8.44
2023-04-28T03:47:38.307Z,8.43
2023-04-28T03:50:06.421Z,8.42
2023-04-28T03:52:33.253Z,8.43
2023-04-28T03:55:00.195Z,8.43
2023-04-28T03:57:27.191Z,8.43
2023-04-28T03:59:54.180Z,8.44
2023-04-28T04:02:21.179Z,8.46
2023-04-28T04:04:49.137Z,8.48
2023-04-28T04:07:16.461Z,8.50
2023-04-28T04:09:43.321Z,8.53
2023-04-28T04:12:10.263Z,8.57
2023-04-28T04:14:37.206Z,8.61
2023-04-28T04:17:04.297Z,8.66
2023-04-28T04:19:31.655Z,8.70
2023-04-28T04:21:58.543Z,8.73
2023-04-28T04:24:25.767Z,8.74
2023-04-28T04:26:53.014Z,8.78
2023-04-28T04:29:28.333Z,8.83
2023-04-28T04:31:55.404Z,8.89
2023-04-28T04:34:22.253Z,8.97
2023-04-28T04:36:49.297Z,9.04
2023-04-28T04:39:16.223Z,9.08
2023-04-28T04:41:43.062Z,9.14
2023-04-28T04:44:24.082Z,9.19
2023-04-28T04:46:51.241Z,9.25
2023-04-28T04:49:18.345Z,9.30
2023-04-28T04:51:45.444Z,9.35
2023-04-28T04:54:12.526Z,9.38
2023-04-28T04:56:39.997Z,9.45
2023-04-28T04:59:07.332Z,9.49
2023-04-28T05:01:57.463Z,9.55
2023-04-28T05:04:24.470Z,9.58
2023-04-28T05:06:52.831Z,9.61
2023-04-28T05:09:19.760Z,9.66
2023-04-28T05:11:46.665Z,9.69
2023-04-28T05:14:13.615Z,9.73
2023-04-28T05:16:42.128Z,9.79
2023-04-28T05:19:11.930Z,9.84
2023-04-28T05:21:38.796Z,9.87
2023-04-28T05:24:06.037Z,9.89
2023-04-28T05:26:33.161Z,9.92
2023-04-28T05:29:04.970Z,9.93
2023-04-28T05:31:31.918Z,9.94
2023-04-28T05:33:59.025Z,9.95
2023-04-28T05:36:26.761Z,9.95
2023-04-28T05:38:53.604Z,9.96
2023-04-28T05:41:20.949Z,9.97
2023-04-28T05:43:51.114Z,9.98
2023-04-28T05:46:30.067Z,10.02
2023-04-28T05:48:58.922Z,10.11
2023-04-28T05:51:27.368Z,10.15
2023-04-28T05:53:54.360Z,10.21
2023-04-28T05:56:21.459Z,10.29
2023-04-28T05:58:50.685Z,10.41
2023-04-28T06:01:18.096Z,10.55
2023-04-28T06:03:46.613Z,10.70
2023-04-28T06:06:13.783Z,10.83
2023-04-28T06:08:40.978Z,10.97
2023-04-28T06:11:07.844Z,11.14
2023-04-28T06:13:34.948Z,11.33
2023-04-28T06:16:03.667Z,11.55
2023-04-28T06:18:32.998Z,11.79
2023-04-28T06:21:01.434Z,12.06
2023-04-28T06:23:28.313Z,12.49
2023-04-28T06:25:55.249Z,13.03
2023-04-28T06:28:22.090Z,13.69
2023-04-28T06:30:49.546Z,14.87
2023-04-28T06:33:16.472Z,16.42
2023-04-28T06:35:43.352Z,17.52
2023-04-28T06:38:10.201Z,18.30
2023-04-28T06:40:37.450Z,18.88
2023-04-28T06:43:06.541Z,19.45
2023-04-28T06:45:38.081Z,20.24
2023-04-28T06:48:05.527Z,20.88
2023-04-28T06:50:32.514Z,21.43
2023-04-28T06:52:59.635Z,22.37
2023-04-28T06:55:29.717Z,23.44
2023-04-28T06:57:58.577Z,24.42
2023-04-28T07:00:25.605Z,25.49
2023-04-28T07:02:52.849Z,26.51
2023-04-28T07:05:20.122Z,27.29
2023-04-28T07:07:47.680Z,28.06
2023-04-28T07:10:15.900Z,28.81
2023-04-28T07:12:42.761Z,29.51
2023-04-28T07:15:10.477Z,30.06
2023-04-28T07:17:38.197Z,30.44
2023-04-28T07:20:06.956Z,30.83
2023-04-28T07:22:33.800Z,31.12
2023-04-28T07:25:00.716Z,31.09
2023-04-28T07:27:27.657Z,30.91
2023-04-28T07:29:54.538Z,31.22
2023-04-28T07:32:21.988Z,31.64
2023-04-28T07:34:48.892Z,31.74
2023-04-28T07:37:16.602Z,31.72
2023-04-28T07:39:43.464Z,31.43
2023-04-28T07:42:10.422Z,31.48
2023-04-28T07:44:37.535Z,31.56
2023-04-28T07:47:04.470Z,31.43
2023-04-28T07:49:31.520Z,30.91
2023-04-28T07:51:58.513Z,30.17
2023-04-28T07:54:25.355Z,28.71
2023-04-28T07:56:52.276Z,27.06
2023-04-28T07:59:19.168Z,25.47
2023-04-28T08:01:46.116Z,24.09
2023-04-28T08:04:13.163Z,22.88
2023-04-28T08:06:40.663Z,21.72
2023-04-28T08:09:08.757Z,20.70
2023-04-28T08:11:35.608Z,19.76
2023-04-28T08:14:03.595Z,19.08
2023-04-28T08:16:31.051Z,18.47
2023-04-28T08:18:59.029Z,17.98
2023-04-28T08:21:27.583Z,17.57
2023-04-28T08:23:54.473Z,17.15
2023-04-28T08:26:21.360Z,16.84
2023-04-28T08:28:48.259Z,16.53
2023-04-28T08:31:15.232Z,16.35
2023-04-28T08:33:44.887Z,16.21
2023-04-28T08:36:18.245Z,16.02
2023-04-28T08:38:45.707Z,15.80
2023-04-28T08:41:14.991Z,15.58
2023-04-28T08:43:43.384Z,15.40
2023-04-28T08:46:10.833Z,15.30
2023-04-28T08:48:42.857Z,15.22
2023-04-28T08:51:09.806Z,15.11
2023-04-28T08:53:57.343Z,15.05
2023-04-28T08:56:25.277Z,15.01
2023-04-28T08:58:52.500Z,14.90
2023-04-28T09:01:19.380Z,14.82
2023-04-28T09:03:47.973Z,14.77
2023-04-28T09:06:15.117Z,14.76
2023-04-28T09:08:42.073Z,14.72
2023-04-28T09:11:10.538Z,14.68
2023-04-28T09:13:37.537Z,14.66
2023-04-28T09:16:04.723Z,14.66
2023-04-28T09:18:34.566Z,14.63
2023-04-28T09:21:09.385Z,14.54
2023-04-28T09:23:48.336Z,14.49
2023-04-28T09:26:15.313Z,14.45
2023-04-28T09:28:42.170Z,14.38
2023-04-28T09:31:29.366Z,14.39
2023-04-28T09:34:02.818Z,14.44
2023-04-28T09:36:30.817Z,14.47
2023-04-28T09:38:58.280Z,14.52
2023-04-28T09:41:40.615Z,14.57
2023-04-28T09:44:15.529Z,14.62
2023-04-28T09:46:44.796Z,14.65
2023-04-28T09:49:12.389Z,14.69
2023-04-28T09:51:39.531Z,14.71
2023-04-28T09:54:06.740Z,14.77
2023-04-28T09:56:35.073Z,14.75
2023-04-28T09:59:02.231Z,14.72
2023-04-28T10:01:34.034Z,14.70
2023-04-28T10:04:02.824Z,14.68
2023-04-28T10:06:30.384Z,14.67
2023-04-28T10:08:58.916Z,14.65
2023-04-28T10:11:25.981Z,14.67
2023-04-28T10:13:53.565Z,14.75
2023-04-28T10:16:20.629Z,14.83
2023-04-28T10:18:47.883Z,14.87
2023-04-28T10:21:18.079Z,14.90
2023-04-28T10:23:48.138Z,14.91
2023-04-28T10:26:16.488Z,14.88
2023-04-28T10:28:50.777Z,14.84
2023-04-28T10:31:21.533Z,14.82
2023-04-28T10:33:48.802Z,14.79
2023-04-28T10:36:47.740Z,14.73
2023-04-28T10:39:15.418Z,14.64
2023-04-28T10:41:42.517Z,14.64
2023-04-28T10:44:28.429Z,14.71
2023-04-28T10:47:04.617Z,14.73
2023-04-28T10:50:01.353Z,14.72
2023-04-28T10:52:40.961Z,14.68
2023-04-28T10:55:27.585Z,14.60
2023-04-28T10:58:16.840Z,14.56
2023-04-28T11:00:45.493Z,14.59
2023-04-28T11:04:06.234Z,14.68
2023-04-28T11:06:37.513Z,14.85
2023-04-28T11:09:20.071Z,14.93
2023-04-28T11:12:06.088Z,14.98
2023-04-28T11:14:37.273Z,15.02
2023-04-28T11:17:05.929Z,15.02
2023-04-28T11:19:41.773Z,15.02
2023-04-28T11:22:15.318Z,15.05
2023-04-28T11:24:42.185Z,15.08
2023-04-28T11:27:09.028Z,15.06
2023-04-28T11:29:37.722Z,14.96
2023-04-28T11:32:05.960Z,14.88
2023-04-28T11:34:33.348Z,14.86
2023-04-28T11:37:00.342Z,14.90
2023-04-28T11:39:30.765Z,14.93
2023-04-28T11:41:58.601Z,14.95
2023-04-28T11:44:27.620Z,14.93
2023-04-28T11:47:00.891Z,14.87
2023-04-28T11:49:46.983Z,14.78
2023-04-28T11:52:14.205Z,14.76
2023-04-28T11:54:44.191Z,14.79
2023-04-28T11:57:18.477Z,14.87
2023-04-28T11:59:46.632Z,14.93
2023-04-28T12:02:14.020Z,14.99
2023-04-28T12:04:42.393Z,14.98
2023-04-28T12:07:16.765Z,14.97
2023-04-28T12:09:48.419Z,15.02
2023-04-28T12:12:22.973Z,15.08
2023-04-28T12:15:06.312Z,15.12
2023-04-28T12:17:34.068Z,15.18
2023-04-28T12:20:11.833Z,15.20
2023-04-28T12:22:49.242Z,15.23
2023-04-28T12:25:17.631Z,15.17
2023-04-28T12:28:04.470Z,15.05
2023-04-28T12:30:33.514Z,14.89
2023-04-28T12:33:00.452Z,14.85
2023-04-28T12:35:28.362Z,14.81
2023-04-28T12:37:56.352Z,14.74
2023-04-28T12:40:24.118Z,14.68
2023-04-28T12:42:51.287Z,14.67
2023-04-28T12:45:18.392Z,14.68
2023-04-28T12:47:45.274Z,14.66
2023-04-28T12:50:12.310Z,14.63
2023-04-28T12:52:39.262Z,14.59
2023-04-28T12:55:06.627Z,14.49
2023-04-28T12:57:33.758Z,14.40
2023-04-28T13:00:00.614Z,14.36
2023-04-28T13:02:28.592Z,14.35
2023-04-28T13:04:55.871Z,14.36
2023-04-28T13:07:22.927Z,14.40
2023-04-28T13:09:49.847Z,14.48
2023-04-28T13:12:16.765Z,14.58
2023-04-28T13:14:44.953Z,14.67
2023-04-28T13:17:12.580Z,14.69
2023-04-28T13:19:40.782Z,14.68
2023-04-28T13:22:09.328Z,14.61
2023-04-28T13:24:36.292Z,14.50
2023-04-28T13:27:04.185Z,14.43
2023-04-28T13:29:31.242Z,14.35
2023-04-28T13:31:58.109Z,14.35
2023-04-28T13:34:25.025Z,14.40
2023-04-28T13:36:54.354Z,14.49
2023-04-28T13:39:22.239Z,14.62
2023-04-28T13:41:49.640Z,14.72
2023-04-28T13:44:16.925Z,14.74
2023-04-28T13:46:43.789Z,14.68
2023-04-28T13:49:10.719Z,14.56
2023-04-28T13:51:37.841Z,14.42
2023-04-28T13:54:08.261Z,14.33
2023-04-28T13:56:36.549Z,14.28
2023-04-28T13:59:04.489Z,14.25
2023-04-28T14:01:31.561Z,14.20
2023-04-28T14:03:58.643Z,14.13
2023-04-28T14:06:27.485Z,14.07
2023-04-28T14:08:54.390Z,14.03
2023-04-28T14:11:21.622Z,13.95
2023-04-28T14:13:48.494Z,13.89
2023-04-28T14:16:15.459Z,13.84
2023-04-28T14:18:42.289Z,13.77
2023-04-28T14:21:09.420Z,13.76
2023-04-28T14:23:36.817Z,13.78
2023-04-28T14:26:03.908Z,13.87
2023-04-28T14:28:30.868Z,13.99
2023-04-28T14:30:57.831Z,14.09
2023-04-28T14:33:24.841Z,14.18
2023-04-28T14:35:51.738Z,14.28
2023-04-28T14:38:18.724Z,14.35
2023-04-28T14:40:45.967Z,14.42
2023-04-28T14:43:14.131Z,14.43
2023-04-28T14:45:41.033Z,14.38
2023-04-28T14:48:10.708Z,14.24
2023-04-28T14:50:37.849Z,14.12
2023-04-28T14:53:07.792Z,14.02
2023-04-28T14:55:34.926Z,13.93
2023-04-28T14:58:02.125Z,13.86
2023-04-28T15:00:29.430Z,13.84
2023-04-28T15:02:56.394Z,13.82
2023-04-28T15:05:23.449Z,13.78
2023-04-28T15:07:50.500Z,13.72
2023-04-28T15:10:18.169Z,13.67
2023-04-28T15:12:45.025Z,13.61
2023-04-28T15:15:11.959Z,13.53
2023-04-28T15:17:39.163Z,13.45
2023-04-28T15:20:08.211Z,13.36
2023-04-28T15:22:36.549Z,13.30
2023-04-28T15:25:03.531Z,13.23
2023-04-28T15:27:30.375Z,13.20
2023-04-28T15:29:57.542Z,13.19
2023-04-28T15:32:24.767Z,13.19
2023-04-28T15:34:51.959Z,13.22
2023-04-28T15:37:37.836Z,13.24
2023-04-28T15:40:09.387Z,13.25
2023-04-28T15:42:37.691Z,13.26
2023-04-28T15:45:05.912Z,13.29
2023-04-28T15:47:33.143Z,13.32
2023-04-28T15:50:00.216Z,13.35
2023-04-28T15:52:27.664Z,13.39
2023-04-28T15:54:55.685Z,13.44
2023-04-28T15:57:22.719Z,13.45
2023-04-28T15:59:51.799Z,13.42
2023-04-28T16:02:19.097Z,13.39
2023-04-28T16:04:46.991Z,13.34
2023-04-28T16:07:14.251Z,13.32
2023-04-28T16:09:41.160Z,13.28
2023-04-28T16:12:08.620Z,13.27
2023-04-28T16:14:36.561Z,13.24
2023-04-28T16:17:03.579Z,13.22
2023-04-28T16:19:30.683Z,13.20
2023-04-28T16:21:58.138Z,13.16
2023-04-28T16:24:25.974Z,13.10
2023-04-28T16:26:53.308Z,13.06
2023-04-28T16:29:20.369Z,13.02
2023-04-28T16:31:47.250Z,12.97
2023-04-28T16:34:14.180Z,12.94
2023-04-28T16:36:41.484Z,12.92
2023-04-28T16:39:09.514Z,12.90
2023-04-28T16:41:37.508Z,12.89
2023-04-28T16:44:04.416Z,12.88
2023-04-28T16:46:31.557Z,12.86
2023-04-28T16:48:58.830Z,12.82
2023-04-28T16:51:25.728Z,12.79
2023-04-28T16:53:52.615Z,12.76
2023-04-28T16:56:19.511Z,12.72
2023-04-28T16:58:46.342Z,12.70
2023-04-28T17:01:13.319Z,12.64
2023-04-28T17:03:42.264Z,12.60
2023-04-28T17:06:09.363Z,12.55
2023-04-28T17:08:36.640Z,12.53
2023-04-28T17:11:06.772Z,12.50
2023-04-28T17:13:34.243Z,12.46
2023-04-28T17:16:01.347Z,12.43
2023-04-28T17:18:28.304Z,12.41
2023-04-28T17:20:56.048Z,12.37
2023-04-28T17:23:22.883Z,12.34
2023-04-28T17:25:49.733Z,12.32
2023-04-28T17:28:16.695Z,12.31
2023-04-28T17:30:47.096Z,12.28
2023-04-28T17:33:15.646Z,12.24
2023-04-28T17:35:42.486Z,12.20
2023-04-28T17:38:09.326Z,12.15
2023-04-28T17:40:36.935Z,12.12
2023-04-28T17:43:04.655Z,12.09
2023-04-28T17:45:31.832Z,12.06
2023-04-28T17:48:00.866Z,12.02
2023-04-28T17:50:27.953Z,11.99
2023-04-28T17:52:55.184Z,11.95
2023-04-28T17:55:22.376Z,11.94
2023-04-28T17:57:49.217Z,11.91
2023-04-28T18:00:16.194Z,11.87
2023-04-28T18:02:43.097Z,11.85
2023-04-28T18:05:10.174Z,11.82
2023-04-28T18:07:37.854Z,11.79
2023-04-28T18:10:04.895Z,11.76
2023-04-28T18:12:31.914Z,11.72
2023-04-28T18:14:58.788Z,11.70
2023-04-28T18:17:26.331Z,11.67
2023-04-28T18:19:56.886Z,11.62
2023-04-28T18:22:24.078Z,11.58
2023-04-28T18:24:51.328Z,11.56
2023-04-28T18:27:19.089Z,11.52
2023-04-28T18:29:45.889Z,11.49
2023-04-28T18:32:14.568Z,11.45
2023-04-28T18:34:43.595Z,11.42
2023-04-28T18:37:10.728Z,11.40
2023-04-28T18:39:37.858Z,11.37
2023-04-28T18:42:04.854Z,11.35
2023-04-28T18:44:32.007Z,11.32
2023-04-28T18:47:00.114Z,11.30
2023-04-28T18:49:27.137Z,11.28
2023-04-28T18:51:54.082Z,11.26
2023-04-28T18:54:21.014Z,11.23
2023-04-28T18:56:52.646Z,11.21
2023-04-28T18:59:19.435Z,11.19
2023-04-28T19:01:47.378Z,11.18
2023-04-28T19:04:14.935Z,11.16
2023-04-28T19:06:41.870Z,11.13
2023-04-28T19:09:08.821Z,11.11
2023-04-28T19:11:35.659Z,11.09
2023-04-28T19:14:02.513Z,11.07
2023-04-28T19:16:29.479Z,11.03
2023-04-28T19:18:56.657Z,11.00
2023-04-28T19:21:23.593Z,10.98
2023-04-28T19:23:50.449Z,10.95
2023-04-28T19:26:17.421Z,10.93
2023-04-28T19:28:44.305Z,10.91
2023-04-28T19:31:11.429Z,10.89
2023-04-28T19:33:38.275Z,10.87
2023-04-28T19:36:07.395Z,10.86
2023-04-28T19:38:35.523Z,10.84
2023-04-28T19:41:02.693Z,10.83
2023-04-28T19:43:29.977Z,10.81
2023-04-28T19:45:57.441Z,10.79
2023-04-28T19:48:26.335Z,10.77
2023-04-28T19:50:53.399Z,10.74
2023-04-28T19:53:20.269Z,10.72
2023-04-28T19:55:47.497Z,10.69
2023-04-28T19:58:15.154Z,10.66
2023-04-28T20:00:42.099Z,10.63
2023-04-28T20:03:09.499Z,10.60
2023-04-28T20:05:39.618Z,10.57
2023-04-28T20:08:06.619Z,10.54
2023-04-28T20:10:33.516Z,10.51
2023-04-28T20:13:00.399Z,10.48
2023-04-28T20:15:27.259Z,10.46
2023-04-28T20:17:55.242Z,10.45
2023-04-28T20:20:22.574Z,10.43
2023-04-28T20:22:50.814Z,10.41
2023-04-28T20:25:17.791Z,10.39
2023-04-28T20:27:47.017Z,10.37
2023-04-28T20:30:14.539Z,10.35
2023-04-28T20:32:41.415Z,10.32
2023-04-28T20:35:08.651Z,10.29
2023-04-28T20:37:35.633Z,10.25
2023-04-28T20:40:03.380Z,10.22
2023-04-28T20:42:30.170Z,10.21
2023-04-28T20:44:57.523Z,10.18
2023-04-28T20:47:24.883Z,10.16
2023-04-28T20:49:51.854Z,10.15
2023-04-28T20:52:19.016Z,10.13
2023-04-28T20:54:47.024Z,10.11
2023-04-28T20:57:13.843Z,10.08
2023-04-28T20:59:40.855Z,10.06
2023-04-28T21:02:07.895Z,10.03
2023-04-28T21:04:34.921Z,10.02
2023-04-28T21:07:01.742Z,9.99
2023-04-28T21:09:28.776Z,9.97
2023-04-28T21:11:55.805Z,9.95
2023-04-28T21:14:22.650Z,9.93
2023-04-28T21:16:49.535Z,9.91
2023-04-28T21:19:17.472Z,9.89
2023-04-28T21:21:44.325Z,9.86
2023-04-28T21:24:11.172Z,9.85
2023-04-28T21:26:38.030Z,9.82
2023-04-28T21:29:04.907Z,9.80
2023-04-28T21:31:31.805Z,9.78
2023-04-28T21:33:58.954Z,9.77
2023-04-28T21:36:25.800Z,9.76
2023-04-28T21:38:52.644Z,9.75
2023-04-28T21:41:20.501Z,9.73
2023-04-28T21:43:47.384Z,9.70
2023-04-28T21:46:14.330Z,9.68
2023-04-28T21:48:41.237Z,9.66
2023-04-28T21:51:08.108Z,9.64
2023-04-28T21:53:34.937Z,9.61
2023-04-28T21:56:01.800Z,9.57
2023-04-28T21:58:28.642Z,9.54
2023-04-28T22:00:55.583Z,9.51
2023-04-28T22:03:22.996Z,9.48
2023-04-28T22:05:50.262Z,9.47
2023-04-28T22:08:17.296Z,9.45
2023-04-28T22:10:45.720Z,9.44
2023-04-28T22:13:13.056Z,9.45
2023-04-28T22:15:40.142Z,9.43
2023-04-28T22:18:08.438Z,9.43
2023-04-28T22:20:36.074Z,9.40
2023-04-28T22:23:02.979Z,9.38
2023-04-28T22:25:29.836Z,9.36
2023-04-28T22:27:56.751Z,9.35
2023-04-28T22:30:25.838Z,9.34
2023-04-28T22:32:53.482Z,9.32
2023-04-28T22:35:20.514Z,9.31
2023-04-28T22:37:47.403Z,9.30
2023-04-28T22:40:14.309Z,9.28
2023-04-28T22:42:41.801Z,9.25
2023-04-28T22:45:10.680Z,9.22
2023-04-28T22:47:38.660Z,9.20
2023-04-28T22:50:08.059Z,9.17
2023-04-28T22:52:35.209Z,9.16
2023-04-28T22:55:02.064Z,9.13
2023-04-28T22:57:28.917Z,9.11
2023-04-28T22:59:56.201Z,9.08
2023-04-28T23:02:23.506Z,9.06
2023-04-28T23:04:51.179Z,9.03
2023-04-28T23:07:18.228Z,8.99
2023-04-28T23:09:45.035Z,8.96
2023-04-28T23:12:11.919Z,8.94
2023-04-28T23:14:38.858Z,8.91
2023-04-28T23:17:05.708Z,8.88
2023-04-28T23:19:32.740Z,8.85
2023-04-28T23:21:59.728Z,8.84
2023-04-28T23:24:27.424Z,8.83
2023-04-28T23:26:54.517Z,8.81
2023-04-28T23:29:21.523Z,8.78
2023-04-28T23:31:52.704Z,8.75
2023-04-28T23:34:19.645Z,8.72
2023-04-28T23:36:46.510Z,8.70
2023-04-28T23:39:13.706Z,8.68
2023-04-28T23:41:41.188Z,8.65
2023-04-28T23:44:08.431Z,8.63
2023-04-28T23:46:35.289Z,8.62
2023-04-28T23:49:02.287Z,8.60
2023-04-28T23:51:29.159Z,8.59
2023-04-28T23:53:55.978Z,8.56
2023-04-28T23:56:22.834Z,8.54
2023-04-28T23:58:49.947Z,8.52
